createdAt,value
2019-03-08T00:01:58.105Z,70.21
2019-03-08T00:04:27.833Z,70.10
2019-03-08T00:06:57.457Z,70.17
2019-03-08T00:09:26.941Z,70.16
2019-03-08T00:11:56.513Z,70.14
2019-03-08T00:14:27.773Z,70.28
2019-03-08T00:16:57.508Z,70.50
2019-03-08T00:19:27.134Z,70.54
2019-03-08T00:21:56.661Z,70.61
2019-03-08T00:24:26.521Z,70.65
2019-03-08T00:26:57.342Z,70.89
2019-03-08T00:29:26.973Z,71.09
2019-03-08T00:31:56.503Z,71.08
2019-03-08T00:34:26.187Z,71.20
2019-03-08T00:36:55.966Z,71.20
2019-03-08T00:39:25.586Z,71.20
2019-03-08T00:41:55.426Z,71.31
2019-03-08T00:44:26.990Z,71.45
2019-03-08T00:46:56.525Z,71.60
2019-03-08T00:49:26.142Z,71.68
2019-03-08T00:51:55.738Z,72.09
2019-03-08T00:54:25.415Z,72.18
2019-03-08T00:56:54.929Z,72.83
2019-03-08T00:59:24.555Z,72.83
2019-03-08T01:01:54.281Z,73.15
2019-03-08T01:04:24.012Z,73.37
2019-03-08T01:06:53.637Z,73.58
2019-03-08T01:09:23.886Z,73.81
2019-03-08T01:11:53.926Z,73.99
2019-03-08T01:14:23.865Z,74.27
2019-03-08T01:16:55.118Z,74.35
2019-03-08T01:19:24.743Z,74.61
2019-03-08T01:21:54.480Z,74.77
2019-03-08T01:24:24.001Z,74.80
2019-03-08T01:26:53.974Z,74.97
2019-03-08T01:29:23.462Z,75.30
2019-03-08T01:31:54.726Z,75.42
2019-03-08T01:34:24.559Z,75.56
2019-03-08T01:36:54.095Z,75.74
2019-03-08T01:39:23.810Z,76.05
2019-03-08T01:41:53.445Z,76.41
2019-03-08T01:44:23.099Z,76.70
2019-03-08T01:46:52.588Z,77.10
2019-03-08T01:49:22.526Z,77.37
2019-03-08T01:51:52.053Z,77.38
2019-03-08T01:54:21.681Z,77.41
2019-03-08T01:56:51.520Z,77.60
2019-03-08T01:59:21.143Z,77.67
2019-03-08T02:01:51.185Z,77.61
2019-03-08T02:04:20.807Z,77.47
2019-03-08T02:06:50.432Z,77.43
2019-03-08T02:09:21.736Z,77.31
2019-03-08T02:11:51.639Z,77.23
2019-03-08T02:14:21.205Z,77.09
2019-03-08T02:16:50.888Z,76.97
2019-03-08T02:19:20.516Z,76.92
2019-03-08T02:21:50.222Z,76.77
2019-03-08T02:24:19.874Z,76.60
2019-03-08T02:26:49.501Z,76.47
2019-03-08T02:29:19.242Z,76.42
2019-03-08T02:31:48.964Z,76.25
2019-03-08T02:34:18.587Z,76.23
2019-03-08T02:36:48.220Z,76.17
2019-03-08T02:39:18.046Z,76.18
2019-03-08T02:41:47.782Z,76.46
2019-03-08T02:44:17.521Z,76.63
2019-03-08T02:46:47.241Z,76.63
2019-03-08T02:49:16.966Z,76.74
2019-03-08T02:51:48.128Z,76.86
2019-03-08T02:54:17.658Z,76.85
2019-03-08T02:56:47.202Z,76.97
2019-03-08T02:59:18.070Z,76.87
2019-03-08T03:01:48.140Z,76.77
2019-03-08T03:04:17.703Z,76.72
2019-03-08T03:06:47.302Z,76.67
2019-03-08T03:09:17.059Z,76.71
2019-03-08T03:11:46.690Z,76.64
2019-03-08T03:14:16.255Z,76.55
2019-03-08T03:16:45.940Z,76.60
2019-03-08T03:19:15.672Z,76.75
2019-03-08T03:21:45.213Z,76.67
2019-03-08T03:24:14.729Z,76.82
2019-03-08T03:26:44.289Z,76.75
2019-03-08T03:29:13.851Z,76.87
2019-03-08T03:31:43.420Z,77.17
2019-03-08T03:34:13.027Z,77.01
2019-03-08T03:36:42.720Z,77.07
2019-03-08T03:39:12.282Z,77.07
2019-03-08T03:41:41.912Z,77.09
2019-03-08T03:44:11.646Z,77.08
2019-03-08T03:46:41.270Z,77.20
2019-03-08T03:49:10.903Z,77.38
2019-03-08T03:51:40.531Z,77.38
2019-03-08T03:54:10.391Z,77.46
2019-03-08T03:56:41.523Z,77.48
2019-03-08T03:59:11.154Z,77.51
2019-03-08T04:01:42.627Z,77.67
2019-03-08T04:04:12.353Z,77.80
2019-03-08T04:06:41.979Z,77.90
2019-03-08T04:09:12.436Z,77.99
2019-03-08T04:11:41.362Z,78.00
2019-03-08T04:14:10.958Z,77.77
2019-03-08T04:16:40.684Z,77.84
2019-03-08T04:19:10.312Z,77.77
2019-03-08T04:21:40.047Z,77.79
2019-03-08T04:24:09.670Z,77.81
2019-03-08T04:26:39.203Z,77.58
2019-03-08T04:29:10.364Z,77.70
2019-03-08T04:31:40.092Z,78.01
2019-03-08T04:34:10.659Z,77.93
2019-03-08T04:36:40.269Z,77.96
2019-03-08T04:39:09.998Z,78.00
2019-03-08T04:41:39.622Z,77.83
2019-03-08T04:44:09.616Z,77.62
2019-03-08T04:46:39.293Z,77.48
2019-03-08T04:49:09.227Z,77.18
2019-03-08T04:51:38.861Z,76.94
2019-03-08T04:54:08.582Z,76.86
2019-03-08T04:56:38.412Z,76.59
2019-03-08T04:59:08.047Z,76.37
2019-03-08T05:01:37.773Z,76.00
2019-03-08T05:04:07.911Z,75.71
2019-03-08T05:06:37.541Z,75.63
2019-03-08T05:09:07.068Z,75.89
2019-03-08T05:11:37.013Z,75.87
2019-03-08T05:14:06.728Z,75.72
2019-03-08T05:16:36.460Z,75.78
2019-03-08T05:19:06.298Z,76.04
2019-03-08T05:21:38.987Z,76.44
2019-03-08T05:24:09.131Z,76.62
2019-03-08T05:26:38.751Z,77.04
2019-03-08T05:29:08.686Z,77.14
2019-03-08T05:31:38.317Z,77.37
2019-03-08T05:34:08.051Z,77.65
2019-03-08T05:36:37.574Z,77.73
2019-03-08T05:39:10.680Z,77.79
2019-03-08T05:41:40.105Z,77.74
2019-03-08T05:44:09.931Z,77.63
2019-03-08T05:46:39.764Z,77.81
2019-03-08T05:49:09.293Z,78.05
2019-03-08T05:51:39.020Z,78.09
2019-03-08T05:54:08.648Z,78.04
2019-03-08T05:56:38.788Z,77.92
2019-03-08T05:59:10.255Z,77.78
2019-03-08T06:01:40.037Z,77.85
2019-03-08T06:04:10.139Z,77.68
2019-03-08T06:06:40.515Z,77.67
2019-03-08T06:09:09.718Z,77.81
2019-03-08T06:11:40.539Z,77.82
2019-03-08T06:14:10.275Z,77.72
2019-03-08T06:16:39.998Z,77.64
2019-03-08T06:19:09.742Z,77.55
2019-03-08T06:21:39.663Z,77.53
2019-03-08T06:24:09.329Z,77.60
2019-03-08T06:26:39.742Z,77.70
2019-03-08T06:29:09.386Z,77.70
2019-03-08T06:31:39.885Z,77.43
